createdAt,value
2023-01-29T00:01:40.200Z,101317.06
2023-01-29T00:04:42.808Z,101313.38
2023-01-29T00:07:44.922Z,101310.84
2023-01-29T00:10:47.314Z,101315.09
2023-01-29T00:13:50.599Z,101329.22
2023-01-29T00:16:53.790Z,101327.75
2023-01-29T00:19:55.985Z,101330.06
2023-01-29T00:22:58.200Z,101325.59
2023-01-29T00:26:00.663Z,101330.44
2023-01-29T00:29:04.270Z,101329.84
2023-01-29T00:32:06.862Z,101338.59
2023-01-29T00:35:09.673Z,101344.31
2023-01-29T00:38:11.720Z,101341.75
2023-01-29T00:41:34.581Z,101337.13
2023-01-29T00:44:55.505Z,101341.38
2023-01-29T00:47:57.478Z,101330.31
2023-01-29T00:51:01.641Z,101346.28
2023-01-29T00:54:07.084Z,101347.94
2023-01-29T00:57:09.025Z,101353.00
2023-01-29T01:00:14.611Z,101357.72
2023-01-29T01:03:18.280Z,101347.09
2023-01-29T01:06:20.421Z,101346.06
2023-01-29T01:09:42.433Z,101352.53
2023-01-29T01:12:44.725Z,101341.63
2023-01-29T01:15:46.916Z,101343.34
2023-01-29T01:18:49.069Z,101346.78
2023-01-29T01:21:51.536Z,101347.63
2023-01-29T01:24:53.692Z,101355.22
2023-01-29T01:27:57.587Z,101345.63
2023-01-29T01:31:08.679Z,101345.78
2023-01-29T01:34:10.795Z,101359.22
2023-01-29T01:37:12.905Z,101361.50
2023-01-29T01:40:18.691Z,101362.84
2023-01-29T01:43:20.942Z,101369.09
2023-01-29T01:46:24.170Z,101376.16
2023-01-29T01:49:26.886Z,101373.28
2023-01-29T01:52:32.837Z,101373.88
2023-01-29T01:55:42.346Z,101370.22
2023-01-29T01:58:51.173Z,101369.25
2023-01-29T02:01:54.677Z,101373.56
2023-01-29T02:05:15.542Z,101366.22
2023-01-29T02:08:53.516Z,101369.94
2023-01-29T02:11:58.408Z,101366.78
2023-01-29T02:15:03.684Z,101381.66
2023-01-29T02:18:06.635Z,101387.81
2023-01-29T02:21:25.425Z,101388.31
2023-01-29T02:24:27.477Z,101398.72
2023-01-29T02:27:49.215Z,101401.22
2023-01-29T02:31:10.088Z,101397.81
2023-01-29T02:34:54.436Z,101395.31
2023-01-29T02:38:24.570Z,101391.19
2023-01-29T02:41:42.175Z,101388.09
2023-01-29T02:45:14.681Z,101390.28
2023-01-29T02:48:23.231Z,101409.06
2023-01-29T02:51:34.486Z,101408.41
2023-01-29T02:54:51.098Z,101401.25
2023-01-29T02:58:00.100Z,101403.66
2023-01-29T03:01:13.952Z,101415.88
2023-01-29T03:04:29.970Z,101416.63
2023-01-29T03:07:46.831Z,101416.75
2023-01-29T03:10:56.071Z,101409.25
2023-01-29T03:14:06.625Z,101419.88
2023-01-29T03:17:10.574Z,101416.38
2023-01-29T03:20:19.582Z,101410.38
2023-01-29T03:23:39.183Z,101416.75
2023-01-29T03:27:02.618Z,101418.53
2023-01-29T03:30:27.032Z,101426.03
2023-01-29T03:33:35.750Z,101423.19
2023-01-29T03:36:51.189Z,101434.19
2023-01-29T03:39:53.603Z,101431.38
2023-01-29T03:43:14.027Z,101423.94
2023-01-29T03:46:35.677Z,101438.44
2023-01-29T03:49:46.365Z,101448.25
2023-01-29T03:52:51.188Z,101446.44
2023-01-29T03:55:59.830Z,101443.00
2023-01-29T03:59:30.795Z,101441.03
2023-01-29T04:02:42.825Z,101440.09
2023-01-29T04:06:12.390Z,101423.94
2023-01-29T04:09:22.637Z,101429.72
2023-01-29T04:12:30.748Z,101435.50
2023-01-29T04:15:41.068Z,101421.59
2023-01-29T04:18:47.113Z,101437.50
2023-01-29T04:21:53.317Z,101442.38
2023-01-29T04:24:55.615Z,101432.34
2023-01-29T04:28:23.479Z,101433.75
2023-01-29T04:31:33.866Z,101429.72
2023-01-29T04:35:01.771Z,101423.31
2023-01-29T04:38:17.168Z,101426.66
2023-01-29T04:41:27.743Z,101435.00
2023-01-29T04:45:06.914Z,101445.19
2023-01-29T04:48:31.110Z,101442.00
2023-01-29T04:51:55.945Z,101436.97
2023-01-29T04:55:17.627Z,101432.03
2023-01-29T04:58:41.064Z,101436.97
2023-01-29T05:01:44.857Z,101440.34
2023-01-29T05:04:48.381Z,101425.00
2023-01-29T05:07:50.780Z,101431.28
2023-01-29T05:10:55.256Z,101425.16
2023-01-29T05:13:58.341Z,101435.97
2023-01-29T05:17:03.321Z,101434.63
2023-01-29T05:20:06.237Z,101437.00
2023-01-29T05:23:26.809Z,101440.19
2023-01-29T05:26:47.227Z,101434.84
2023-01-29T05:29:49.345Z,101431.00
2023-01-29T05:32:51.595Z,101429.41
2023-01-29T05:35:55.490Z,101431.47
2023-01-29T05:38:58.002Z,101423.94
2023-01-29T05:42:00.007Z,101434.53
2023-01-29T05:45:01.891Z,101430.78
2023-01-29T05:48:03.995Z,101443.19
2023-01-29T05:51:07.092Z,101431.53
2023-01-29T05:54:12.589Z,101436.53
2023-01-29T05:57:15.372Z,101449.84
2023-01-29T06:00:17.825Z,101441.19
2023-01-29T06:03:21.109Z,101443.91
2023-01-29T06:06:22.975Z,101444.59
2023-01-29T06:09:25.011Z,101450.50
2023-01-29T06:12:27.839Z,101453.34
2023-01-29T06:15:29.718Z,101462.94
2023-01-29T06:18:31.619Z,101455.88
2023-01-29T06:21:34.118Z,101456.28
2023-01-29T06:24:36.705Z,101468.69
2023-01-29T06:27:39.025Z,101474.41
2023-01-29T06:30:41.355Z,101476.97
2023-01-29T06:33:43.444Z,101484.16
2023-01-29T06:36:45.413Z,101486.56
2023-01-29T06:39:47.430Z,101497.81
2023-01-29T06:42:49.418Z,101502.13
2023-01-29T06:45:55.024Z,101499.28
2023-01-29T06:49:01.153Z,101506.16
2023-01-29T06:52:03.470Z,101507.75
2023-01-29T06:55:06.186Z,101512.16
2023-01-29T06:58:10.036Z,101500.00
2023-01-29T07:01:29.073Z,101506.63
2023-01-29T07:04:35.708Z,101503.88
2023-01-29T07:07:37.827Z,101500.06
2023-01-29T07:10:41.759Z,101501.75
2023-01-29T07:13:44.168Z,101496.56
2023-01-29T07:16:46.477Z,101493.88
2023-01-29T07:19:48.494Z,101499.19
2023-01-29T07:22:50.845Z,101502.13
2023-01-29T07:25:53.008Z,101489.34
2023-01-29T07:28:55.393Z,101490.81
2023-01-29T07:31:57.294Z,101480.81
2023-01-29T07:34:59.500Z,101484.31
2023-01-29T07:38:01.523Z,101479.00
2023-01-29T07:41:03.699Z,101480.50
2023-01-29T07:44:05.832Z,101475.25
2023-01-29T07:47:09.492Z,101465.66
2023-01-29T07:50:14.452Z,101466.00
2023-01-29T07:53:17.268Z,101459.44
2023-01-29T07:56:19.357Z,101468.41
2023-01-29T07:59:22.056Z,101485.56
2023-01-29T08:02:24.360Z,101482.31
2023-01-29T08:05:26.538Z,101470.50
2023-01-29T08:08:28.627Z,101476.88
2023-01-29T08:11:30.878Z,101485.66
2023-01-29T08:14:33.145Z,101469.00
2023-01-29T08:17:36.028Z,101484.31
2023-01-29T08:20:47.064Z,101483.69
2023-01-29T08:23:49.336Z,101478.50
2023-01-29T08:26:51.319Z,101491.00
2023-01-29T08:29:53.454Z,101499.81
2023-01-29T08:32:55.596Z,101506.75
2023-01-29T08:36:00.494Z,101499.31
2023-01-29T08:39:02.929Z,101498.06
2023-01-29T08:42:05.438Z,101502.47
2023-01-29T08:45:08.005Z,101516.47
2023-01-29T08:48:10.619Z,101517.88
2023-01-29T08:51:13.126Z,101527.97
2023-01-29T08:54:17.262Z,101523.69
2023-01-29T08:57:19.611Z,101533.03
2023-01-29T09:00:22.282Z,101526.63
2023-01-29T09:03:25.236Z,101541.72
2023-01-29T09:06:27.377Z,101538.63
2023-01-29T09:09:29.785Z,101545.38
2023-01-29T09:12:32.193Z,101545.53
2023-01-29T09:15:34.388Z,101544.53
2023-01-29T09:18:37.226Z,101543.84
2023-01-29T09:21:39.271Z,101539.44
2023-01-29T09:24:41.528Z,101533.13
2023-01-29T09:27:45.934Z,101545.19
2023-01-29T09:30:49.367Z,101533.69
2023-01-29T09:33:53.897Z,101550.53
2023-01-29T09:36:56.019Z,101546.66
2023-01-29T09:39:58.133Z,101558.91
2023-01-29T09:43:09.640Z,101553.00
2023-01-29T09:46:20.594Z,101559.09
2023-01-29T09:49:41.827Z,101560.47
2023-01-29T09:52:59.767Z,101551.53
2023-01-29T09:56:06.251Z,101558.38
2023-01-29T09:59:16.279Z,101555.22
2023-01-29T10:02:41.209Z,101560.88
2023-01-29T10:06:04.280Z,101560.13
2023-01-29T10:09:43.844Z,101551.78
2023-01-29T10:13:13.730Z,101557.44
2023-01-29T10:16:31.634Z,101563.34
2023-01-29T10:19:52.346Z,101563.28
2023-01-29T10:23:21.279Z,101569.78
2023-01-29T10:26:27.610Z,101546.63
2023-01-29T10:29:31.632Z,101548.50
2023-01-29T10:32:37.319Z,101560.16
2023-01-29T10:35:46.587Z,101554.59
2023-01-29T10:38:51.194Z,101560.41
2023-01-29T10:42:30.383Z,101557.44
2023-01-29T10:45:43.665Z,101553.13
2023-01-29T10:48:55.226Z,101541.84
2023-01-29T10:52:08.631Z,101541.00
2023-01-29T10:55:29.515Z,101545.09
2023-01-29T10:58:42.197Z,101536.88
2023-01-29T11:01:44.420Z,101521.75
2023-01-29T11:04:46.766Z,101516.06
2023-01-29T11:07:55.164Z,101517.84
2023-01-29T11:11:03.361Z,101518.47
2023-01-29T11:14:10.537Z,101521.38
2023-01-29T11:17:23.491Z,101515.44
2023-01-29T11:20:28.456Z,101504.31
2023-01-29T11:23:35.123Z,101494.31
2023-01-29T11:26:42.376Z,101481.50
2023-01-29T11:29:48.625Z,101485.94
2023-01-29T11:32:59.371Z,101483.09
2023-01-29T11:36:21.094Z,101475.09
2023-01-29T11:39:24.654Z,101472.00
2023-01-29T11:42:32.006Z,101479.66
2023-01-29T11:45:38.687Z,101468.50
2023-01-29T11:48:51.577Z,101457.84
2023-01-29T11:51:56.111Z,101455.19
2023-01-29T11:55:05.774Z,101451.53
2023-01-29T11:58:30.025Z,101442.53
2023-01-29T12:01:41.340Z,101442.13
2023-01-29T12:04:43.744Z,101441.25
2023-01-29T12:07:51.937Z,101447.25
2023-01-29T12:11:09.151Z,101447.84
2023-01-29T12:14:34.443Z,101444.66
2023-01-29T12:17:39.608Z,101435.78
2023-01-29T12:20:47.933Z,101441.78
2023-01-29T12:24:03.572Z,101431.44
2023-01-29T12:27:18.365Z,101431.19
2023-01-29T12:30:35.509Z,101430.69
2023-01-29T12:33:57.097Z,101429.19
2023-01-29T12:37:26.136Z,101427.88
2023-01-29T12:41:11.801Z,101438.06
2023-01-29T12:44:21.087Z,101435.75
2023-01-29T12:47:23.346Z,101433.31
2023-01-29T12:50:33.227Z,101432.53
2023-01-29T12:53:41.812Z,101440.63
2023-01-29T12:56:56.483Z,101427.19
2023-01-29T13:00:22.619Z,101427.59
2023-01-29T13:03:53.747Z,101426.88
2023-01-29T13:07:07.068Z,101417.31
2023-01-29T13:10:17.137Z,101407.63
2023-01-29T13:14:00.239Z,101395.88
2023-01-29T13:17:14.132Z,101394.25
2023-01-29T13:20:24.445Z,101389.13
2023-01-29T13:23:35.067Z,101366.78
2023-01-29T13:26:38.121Z,101373.13
2023-01-29T13:29:40.347Z,101365.63
2023-01-29T13:32:42.496Z,101365.84
2023-01-29T13:35:46.440Z,101355.16
2023-01-29T13:39:00.519Z,101366.00
2023-01-29T13:42:20.478Z,101376.75
2023-01-29T13:45:37.101Z,101377.47
2023-01-29T13:48:46.853Z,101376.16
2023-01-29T13:51:49.001Z,101384.38
2023-01-29T13:54:57.612Z,101364.44
2023-01-29T13:58:05.685Z,101377.94
2023-01-29T14:01:08.366Z,101368.13
2023-01-29T14:04:19.662Z,101361.81
2023-01-29T14:07:50.147Z,101374.28
2023-01-29T14:11:15.493Z,101383.13
2023-01-29T14:14:49.408Z,101383.28
2023-01-29T14:18:22.300Z,101380.50
2023-01-29T14:21:29.851Z,101387.72
2023-01-29T14:24:35.899Z,101388.28
2023-01-29T14:27:40.190Z,101383.72
2023-01-29T14:30:48.834Z,101388.66
2023-01-29T14:33:53.796Z,101378.63
2023-01-29T14:37:21.337Z,101383.69
2023-01-29T14:40:35.355Z,101383.16
2023-01-29T14:43:37.686Z,101391.56
2023-01-29T14:46:44.141Z,101391.97
2023-01-29T14:49:57.351Z,101399.78
2023-01-29T14:53:06.032Z,101361.84
2023-01-29T14:56:22.289Z,101366.88
2023-01-29T14:59:37.876Z,101396.38
2023-01-29T15:02:45.602Z,101358.50
2023-01-29T15:05:49.764Z,101386.75
2023-01-29T15:09:12.466Z,101376.13
2023-01-29T15:12:34.423Z,101387.63
2023-01-29T15:15:57.048Z,101383.09
2023-01-29T15:19:15.152Z,101381.75
2023-01-29T15:22:20.247Z,101386.47
2023-01-29T15:25:22.904Z,101375.84
2023-01-29T15:28:25.368Z,101378.03
2023-01-29T15:31:28.672Z,101369.91
2023-01-29T15:34:30.947Z,101373.47
2023-01-29T15:37:34.733Z,101377.34
2023-01-29T15:40:37.109Z,101384.03
2023-01-29T15:43:44.752Z,101385.41
2023-01-29T15:46:54.822Z,101375.19
2023-01-29T15:49:57.846Z,101379.56
2023-01-29T15:53:07.157Z,101392.22
2023-01-29T15:56:17.035Z,101390.63
2023-01-29T15:59:41.914Z,101388.13
2023-01-29T16:02:44.309Z,101398.41
2023-01-29T16:05:46.783Z,101399.00
2023-01-29T16:08:54.626Z,101398.94
2023-01-29T16:12:00.961Z,101394.69
2023-01-29T16:15:05.433Z,101394.22
2023-01-29T16:18:35.956Z,101394.31
2023-01-29T16:21:44.464Z,101400.13
2023-01-29T16:24:47.945Z,101403.72
2023-01-29T16:27:51.704Z,101407.91
2023-01-29T16:31:02.601Z,101412.16
2023-01-29T16:34:14.473Z,101420.66
2023-01-29T16:37:24.609Z,101426.69
2023-01-29T16:40:33.583Z,101425.09
2023-01-29T16:43:42.212Z,101432.28
2023-01-29T16:46:51.486Z,101429.25
2023-01-29T16:50:00.712Z,101431.97
2023-01-29T16:53:05.764Z,101425.09
2023-01-29T16:56:09.019Z,101429.34
2023-01-29T16:59:18.842Z,101438.03
2023-01-29T17:02:33.471Z,101433.84
2023-01-29T17:05:38.196Z,101433.97
2023-01-29T17:08:44.542Z,101425.22
2023-01-29T17:11:50.386Z,101429.66
2023-01-29T17:14:58.469Z,101427.25
2023-01-29T17:18:03.603Z,101430.16
2023-01-29T17:21:08.161Z,101426.75
2023-01-29T17:24:11.787Z,101422.88
2023-01-29T17:27:23.463Z,101425.88
2023-01-29T17:30:30.543Z,101417.34
2023-01-29T17:33:32.989Z,101418.66
2023-01-29T17:36:37.046Z,101411.06
2023-01-29T17:39:39.949Z,101402.50
2023-01-29T17:42:42.782Z,101400.09
2023-01-29T17:45:45.125Z,101395.88
2023-01-29T17:48:49.593Z,101396.06
2023-01-29T17:51:53.281Z,101393.28
2023-01-29T17:54:55.845Z,101381.00
2023-01-29T17:57:59.140Z,101388.78
2023-01-29T18:01:01.794Z,101378.19
2023-01-29T18:04:04.257Z,101379.25
2023-01-29T18:07:07.231Z,101380.50
2023-01-29T18:10:21.698Z,101384.06
2023-01-29T18:13:24.321Z,101380.38
2023-01-29T18:16:26.595Z,101374.34
2023-01-29T18:19:32.215Z,101371.38
2023-01-29T18:22:34.517Z,101373.69
2023-01-29T18:25:37.687Z,101363.34
2023-01-29T18:28:43.537Z,101357.31
2023-01-29T18:31:48.333Z,101359.88
2023-01-29T18:34:50.614Z,101358.09
2023-01-29T18:37:52.960Z,101359.13
2023-01-29T18:41:04.210Z,101356.47
2023-01-29T18:44:06.650Z,101358.16
2023-01-29T18:47:08.734Z,101359.13
2023-01-29T18:50:12.133Z,101357.31
2023-01-29T18:53:17.173Z,101359.25
2023-01-29T18:56:20.532Z,101364.44
2023-01-29T18:59:23.082Z,101361.59
2023-01-29T19:02:26.575Z,101359.38
2023-01-29T19:05:29.244Z,101361.47
2023-01-29T19:08:32.973Z,101361.75
2023-01-29T19:11:35.223Z,101368.75
2023-01-29T19:14:38.530Z,101365.97
2023-01-29T19:17:41.195Z,101363.00
2023-01-29T19:20:44.094Z,101347.91
2023-01-29T19:23:46.885Z,101352.16
2023-01-29T19:26:51.624Z,101352.22
2023-01-29T19:29:55.962Z,101345.16
2023-01-29T19:32:58.290Z,101355.00
2023-01-29T19:36:01.637Z,101359.53
2023-01-29T19:39:04.484Z,101350.22
2023-01-29T19:42:10.786Z,101343.47
2023-01-29T19:45:13.507Z,101333.69
2023-01-29T19:48:26.482Z,101335.56
2023-01-29T19:51:29.297Z,101350.53
2023-01-29T19:54:37.055Z,101344.38
2023-01-29T19:57:40.342Z,101352.72
2023-01-29T20:00:42.645Z,101353.88
2023-01-29T20:03:48.472Z,101346.78
2023-01-29T20:06:50.832Z,101339.31
2023-01-29T20:09:54.377Z,101341.25
2023-01-29T20:12:56.783Z,101349.38
2023-01-29T20:16:03.224Z,101345.28
2023-01-29T20:19:14.398Z,101343.91
2023-01-29T20:22:17.687Z,101339.38
2023-01-29T20:25:20.191Z,101325.03
2023-01-29T20:28:22.645Z,101327.44
2023-01-29T20:31:25.172Z,101329.16
2023-01-29T20:34:27.203Z,101321.63
2023-01-29T20:37:29.163Z,101323.34
2023-01-29T20:40:31.571Z,101330.69
2023-01-29T20:43:34.675Z,101324.91
2023-01-29T20:46:40.853Z,101315.53
2023-01-29T20:49:43.712Z,101322.75
2023-01-29T20:52:46.384Z,101317.34
2023-01-29T20:55:49.054Z,101331.47
2023-01-29T20:58:52.017Z,101330.53
2023-01-29T21:02:06.388Z,101320.50
2023-01-29T21:05:09.062Z,101327.13
2023-01-29T21:08:12.147Z,101325.16
2023-01-29T21:11:14.700Z,101326.72
2023-01-29T21:14:17.081Z,101327.91
2023-01-29T21:17:19.532Z,101337.94
2023-01-29T21:20:22.041Z,101338.59
2023-01-29T21:23:24.726Z,101342.06
2023-01-29T21:26:27.480Z,101353.47
2023-01-29T21:29:29.727Z,101347.25
2023-01-29T21:32:32.671Z,101352.69
2023-01-29T21:35:37.111Z,101350.28
2023-01-29T21:38:40.366Z,101345.75
2023-01-29T21:42:02.596Z,101338.28
2023-01-29T21:45:05.325Z,101338.34
2023-01-29T21:48:09.209Z,101346.28
2023-01-29T21:51:11.379Z,101339.47
2023-01-29T21:54:15.473Z,101342.16
2023-01-29T21:57:20.380Z,101333.22
2023-01-29T22:00:22.547Z,101341.69
2023-01-29T22:03:24.891Z,101328.84
2023-01-29T22:06:27.049Z,101320.81
2023-01-29T22:09:32.741Z,101311.06
2023-01-29T22:12:38.216Z,101303.91
2023-01-29T22:15:42.729Z,101312.19
2023-01-29T22:18:45.046Z,101306.47
2023-01-29T22:21:47.235Z,101299.25
2023-01-29T22:24:50.925Z,101293.34
2023-01-29T22:27:53.604Z,101288.53
2023-01-29T22:31:05.209Z,101302.28
2023-01-29T22:34:07.561Z,101294.22
2023-01-29T22:37:09.927Z,101296.97
2023-01-29T22:40:13.175Z,101287.59
2023-01-29T22:43:22.894Z,101284.44
2023-01-29T22:46:25.484Z,101263.59
2023-01-29T22:49:31.955Z,101279.47
2023-01-29T22:52:38.505Z,101258.56
2023-01-29T22:55:46.977Z,101277.59
2023-01-29T22:58:56.587Z,101273.19
2023-01-29T23:01:59.925Z,101247.88
2023-01-29T23:05:01.969Z,101261.19
2023-01-29T23:08:03.859Z,101263.84
2023-01-29T23:11:17.895Z,101263.69
2023-01-29T23:14:21.485Z,101260.53
2023-01-29T23:17:25.993Z,101260.59
2023-01-29T23:20:31.917Z,101247.31
2023-01-29T23:23:36.034Z,101261.81
2023-01-29T23:26:57.226Z,101251.69
2023-01-29T23:29:59.938Z,101247.72
2023-01-29T23:33:03.198Z,101233.09
2023-01-29T23:36:07.663Z,101234.47
2023-01-29T23:39:10.233Z,101235.09
2023-01-29T23:42:13.154Z,101232.31
2023-01-29T23:45:15.360Z,101231.16
2023-01-29T23:48:17.929Z,101229.00
2023-01-29T23:51:23.713Z,101230.38
2023-01-29T23:54:26.832Z,101223.22
2023-01-29T23:57:29.372Z,101226.16
